createdAt,value
2019-03-06T00:00:47.089Z,6.40
2019-03-06T00:03:35.479Z,6.40
2019-03-06T00:06:24.179Z,6.40
2019-03-06T00:09:12.711Z,6.40
2019-03-06T00:12:01.154Z,6.50
2019-03-06T00:14:49.312Z,6.50
2019-03-06T00:17:37.719Z,6.50
2019-03-06T00:20:25.559Z,6.50
2019-03-06T00:23:14.071Z,6.50
2019-03-06T00:26:02.125Z,6.50
2019-03-06T00:28:50.651Z,6.60
2019-03-06T00:31:38.889Z,6.60
2019-03-06T00:34:27.651Z,6.70
2019-03-06T00:37:16.132Z,6.70
2019-03-06T00:40:14.096Z,6.70
2019-03-06T00:43:02.335Z,6.70
2019-03-06T00:45:50.450Z,6.80
2019-03-06T00:48:39.126Z,6.70
2019-03-06T00:51:27.460Z,6.70
2019-03-06T00:54:15.361Z,6.70
2019-03-06T00:57:04.059Z,6.70
2019-03-06T00:59:52.058Z,6.70
2019-03-06T01:02:40.047Z,6.70
2019-03-06T01:05:28.652Z,6.70
2019-03-06T01:08:17.133Z,6.90
2019-03-06T01:11:05.005Z,6.90
2019-03-06T01:13:54.379Z,6.90
2019-03-06T01:16:42.459Z,7.00
2019-03-06T01:19:30.638Z,6.90
2019-03-06T01:22:18.835Z,7.00
2019-03-06T01:25:07.370Z,7.00
2019-03-06T01:27:55.654Z,7.00
2019-03-06T01:30:43.297Z,7.10
2019-03-06T01:33:56.983Z,7.10
2019-03-06T01:37:05.885Z,7.10
2019-03-06T01:40:16.324Z,7.10
2019-03-06T01:43:27.224Z,7.10
2019-03-06T01:46:14.699Z,7.00
2019-03-06T01:49:02.584Z,7.10
2019-03-06T01:51:51.404Z,7.10
2019-03-06T01:54:39.436Z,7.10
2019-03-06T01:57:27.560Z,7.10
2019-03-06T02:00:17.990Z,7.10
2019-03-06T02:03:06.284Z,7.10
2019-03-06T02:05:55.592Z,7.10
2019-03-06T02:08:43.849Z,7.10
2019-03-06T02:11:31.521Z,7.10
2019-03-06T02:14:20.552Z,7.10
2019-03-06T02:17:08.472Z,7.10
2019-03-06T02:19:56.526Z,7.10
2019-03-06T02:22:45.167Z,7.20
2019-03-06T02:25:33.686Z,7.20
2019-03-06T02:28:21.976Z,7.10
2019-03-06T02:31:10.639Z,7.20
2019-03-06T02:33:59.140Z,7.20
2019-03-06T02:36:46.791Z,7.10
2019-03-06T02:39:34.373Z,7.20
2019-03-06T02:42:22.036Z,7.20
2019-03-06T02:45:11.873Z,7.20
2019-03-06T02:47:59.701Z,7.30
2019-03-06T02:50:47.345Z,7.30
2019-03-06T02:53:35.839Z,7.30
2019-03-06T02:56:24.394Z,7.30
2019-03-06T02:59:26.389Z,7.30
2019-03-06T03:02:40.004Z,7.30
2019-03-06T03:05:36.002Z,7.40
2019-03-06T03:08:24.584Z,7.40
2019-03-06T03:11:12.722Z,7.40
2019-03-06T03:14:01.251Z,7.40
2019-03-06T03:16:49.561Z,7.40
2019-03-06T03:19:38.305Z,7.40
2019-03-06T03:22:26.418Z,7.40
2019-03-06T03:25:14.784Z,7.50
2019-03-06T03:28:02.814Z,7.50
2019-03-06T03:30:51.303Z,7.50
2019-03-06T03:33:39.502Z,7.50
2019-03-06T03:36:27.073Z,7.60
2019-03-06T03:39:15.326Z,7.60
2019-03-06T03:42:03.781Z,7.70
2019-03-06T03:44:51.527Z,7.70
2019-03-06T03:47:39.550Z,7.70
2019-03-06T03:50:27.586Z,7.70
2019-03-06T03:53:15.562Z,7.70
2019-03-06T03:56:03.882Z,7.70
2019-03-06T03:58:51.870Z,7.80
2019-03-06T04:01:40.518Z,7.80
2019-03-06T04:04:28.664Z,7.80
2019-03-06T04:07:16.614Z,7.80
2019-03-06T04:10:05.353Z,7.80
2019-03-06T04:12:52.859Z,7.80
2019-03-06T04:15:41.576Z,7.90
2019-03-06T04:18:30.516Z,8.00
2019-03-06T04:21:19.005Z,8.00
2019-03-06T04:24:06.839Z,8.00
2019-03-06T04:26:54.479Z,8.00
2019-03-06T04:29:43.060Z,8.10
2019-03-06T04:32:31.403Z,8.10
2019-03-06T04:35:19.402Z,8.10
2019-03-06T04:38:07.649Z,8.10
2019-03-06T04:40:56.151Z,8.20
2019-03-06T04:43:44.468Z,8.10
2019-03-06T04:46:32.964Z,8.20
2019-03-06T04:49:21.008Z,8.20
2019-03-06T04:52:08.891Z,8.20
2019-03-06T04:54:57.187Z,8.20
2019-03-06T04:57:45.912Z,8.10
2019-03-06T05:00:34.720Z,8.10
2019-03-06T05:03:23.210Z,8.20
2019-03-06T05:06:11.639Z,8.10
2019-03-06T05:08:59.719Z,8.20
2019-03-06T05:11:48.049Z,8.20
2019-03-06T05:14:36.051Z,8.20
2019-03-06T05:17:30.533Z,8.30
2019-03-06T05:20:18.710Z,8.30
2019-03-06T05:23:06.699Z,8.20
2019-03-06T05:25:55.374Z,8.20
2019-03-06T05:28:43.155Z,8.20
2019-03-06T05:31:31.375Z,8.30
2019-03-06T05:34:19.591Z,8.30
2019-03-06T05:37:35.418Z,8.20
2019-03-06T05:40:23.667Z,8.30
2019-03-06T05:43:12.339Z,8.30
2019-03-06T05:46:00.614Z,8.30
2019-03-06T05:48:49.251Z,8.20
2019-03-06T05:51:37.415Z,8.30
2019-03-06T05:54:25.559Z,8.30
2019-03-06T05:57:13.499Z,8.30
2019-03-06T06:00:02.337Z,8.30
2019-03-06T06:02:50.686Z,8.20
2019-03-06T06:05:38.849Z,8.20
2019-03-06T06:08:27.193Z,8.20
2019-03-06T06:11:15.413Z,8.20
2019-03-06T06:14:04.011Z,8.20
2019-03-06T06:16:52.007Z,8.30
2019-03-06T06:19:40.198Z,8.30
2019-03-06T06:22:33.404Z,8.40
2019-03-06T06:25:21.444Z,8.40
2019-03-06T06:28:09.850Z,8.40
2019-03-06T06:30:57.307Z,8.40
2019-03-06T06:33:45.531Z,8.40
2019-03-06T06:36:33.903Z,8.50
2019-03-06T06:39:22.154Z,8.60
2019-03-06T06:42:10.631Z,8.60
2019-03-06T06:44:58.893Z,8.60
2019-03-06T06:48:09.443Z,8.60
2019-03-06T06:51:34.678Z,8.70
2019-03-06T06:55:04.071Z,8.80
2019-03-06T06:58:39.366Z,8.90
2019-03-06T07:02:09.751Z,8.80
2019-03-06T07:05:24.983Z,8.90
2019-03-06T07:08:41.117Z,8.90
2019-03-06T07:11:35.643Z,9.00
2019-03-06T07:14:31.263Z,9.00
2019-03-06T07:17:37.763Z,9.00
2019-03-06T07:20:35.884Z,9.00
2019-03-06T07:23:30.658Z,9.00
2019-03-06T07:26:38.251Z,9.10
2019-03-06T07:29:33.953Z,9.30
2019-03-06T07:32:46.259Z,9.30
2019-03-06T07:36:20.004Z,9.40
2019-03-06T07:39:21.576Z,9.50
2019-03-06T07:42:29.076Z,9.60
2019-03-06T07:45:59.114Z,9.60
2019-03-06T07:49:06.137Z,9.70
2019-03-06T07:52:22.117Z,9.60
2019-03-06T07:55:28.008Z,9.60
2019-03-06T07:58:53.403Z,9.60
2019-03-06T08:01:45.724Z,9.50
2019-03-06T08:04:33.748Z,9.60
2019-03-06T08:07:21.888Z,9.70
2019-03-06T08:10:12.931Z,9.70
2019-03-06T08:13:09.443Z,9.80
2019-03-06T08:16:08.701Z,10.00
2019-03-06T08:19:24.580Z,10.10
2019-03-06T08:22:32.121Z,10.20
2019-03-06T08:25:25.730Z,10.50
2019-03-06T08:28:14.311Z,10.80
2019-03-06T08:31:30.995Z,11.20
2019-03-06T08:34:18.587Z,11.60
2019-03-06T08:37:06.980Z,12.00
2019-03-06T08:39:55.287Z,12.20
2019-03-06T08:42:44.035Z,12.40
2019-03-06T08:45:40.951Z,12.50
2019-03-06T08:48:36.047Z,12.40
2019-03-06T08:51:43.395Z,12.30
2019-03-06T08:54:49.304Z,12.50
2019-03-06T08:57:44.352Z,12.70
2019-03-06T09:01:07.384Z,12.90
2019-03-06T09:04:07.295Z,12.80
2019-03-06T09:07:10.827Z,12.70
2019-03-06T09:10:21.343Z,12.70
2019-03-06T09:13:19.323Z,13.10
2019-03-06T09:16:25.598Z,13.10
2019-03-06T09:19:48.244Z,13.20
2019-03-06T09:22:54.066Z,13.10
2019-03-06T09:25:52.568Z,13.20
2019-03-06T09:28:50.722Z,13.10
2019-03-06T09:32:01.213Z,13.30
2019-03-06T09:35:15.414Z,13.20
2019-03-06T09:38:26.327Z,13.10
2019-03-06T09:41:29.878Z,13.00
2019-03-06T09:44:36.054Z,13.00
2019-03-06T09:47:55.462Z,13.10
2019-03-06T09:50:56.799Z,13.40
2019-03-06T09:54:13.370Z,13.70
2019-03-06T09:57:16.834Z,14.00
2019-03-06T10:00:11.783Z,14.10
2019-03-06T10:03:17.777Z,14.30
2019-03-06T10:06:13.352Z,14.10
2019-03-06T10:09:14.403Z,14.00
2019-03-06T10:12:11.984Z,14.40
2019-03-06T10:15:18.066Z,14.50
2019-03-06T10:18:31.498Z,14.40
2019-03-06T10:21:19.042Z,14.60
2019-03-06T10:24:07.629Z,14.40
2019-03-06T10:26:55.714Z,15.00
2019-03-06T10:29:44.223Z,15.30
2019-03-06T10:32:32.083Z,15.80
2019-03-06T10:35:20.096Z,16.10
2019-03-06T10:38:16.420Z,15.30
2019-03-06T10:40:58.859Z,14.70
2019-03-06T10:43:49.101Z,14.20
2019-03-06T10:46:36.524Z,14.00
2019-03-06T10:49:24.603Z,13.90
2019-03-06T10:52:12.949Z,13.80
2019-03-06T10:55:01.421Z,14.00
2019-03-06T10:57:49.867Z,14.20
2019-03-06T11:00:45.178Z,14.60
2019-03-06T11:03:52.951Z,14.90
2019-03-06T11:06:40.688Z,15.70
2019-03-06T11:09:29.166Z,16.00
2019-03-06T11:12:17.222Z,16.10
2019-03-06T11:15:07.943Z,15.80
2019-03-06T11:17:56.771Z,15.40
2019-03-06T11:20:44.698Z,15.30
2019-03-06T11:23:32.451Z,15.70
2019-03-06T11:26:20.707Z,15.60
2019-03-06T11:29:10.338Z,15.70
2019-03-06T11:31:58.758Z,15.60
2019-03-06T11:34:47.128Z,15.70
2019-03-06T11:37:35.146Z,15.40
2019-03-06T11:40:23.545Z,15.30
2019-03-06T11:43:12.607Z,15.70
2019-03-06T11:46:00.451Z,15.40
2019-03-06T11:48:48.918Z,15.20
2019-03-06T11:51:36.579Z,15.00
2019-03-06T11:54:24.971Z,15.10
2019-03-06T11:57:13.216Z,15.30
2019-03-06T12:00:01.731Z,15.40
2019-03-06T12:02:50.163Z,15.80
2019-03-06T12:05:38.419Z,16.30
2019-03-06T12:08:27.054Z,16.80
2019-03-06T12:11:15.752Z,17.90
2019-03-06T12:14:04.494Z,18.90
2019-03-06T12:16:52.122Z,18.50
2019-03-06T12:19:40.442Z,17.40
2019-03-06T12:22:28.838Z,16.60
2019-03-06T12:25:17.266Z,16.20
2019-03-06T12:28:08.559Z,15.90
2019-03-06T12:30:56.998Z,15.80
2019-03-06T12:33:45.422Z,15.90
2019-03-06T12:36:33.630Z,16.00
2019-03-06T12:39:22.283Z,16.40
2019-03-06T12:42:14.399Z,16.80
2019-03-06T12:44:59.999Z,17.50
2019-03-06T12:47:55.351Z,17.70
2019-03-06T12:50:39.210Z,17.80
2019-03-06T12:53:27.223Z,18.10
2019-03-06T12:56:15.663Z,17.50
2019-03-06T12:59:04.654Z,16.80
2019-03-06T13:01:52.774Z,16.50
2019-03-06T13:04:41.381Z,16.20
2019-03-06T13:07:30.126Z,16.10
2019-03-06T13:10:18.387Z,16.10
2019-03-06T13:13:06.486Z,16.10
2019-03-06T13:15:55.168Z,16.00
2019-03-06T13:18:43.101Z,15.60
2019-03-06T13:21:30.671Z,15.60
2019-03-06T13:24:18.874Z,15.50
2019-03-06T13:27:07.592Z,15.30
2019-03-06T13:29:55.856Z,15.30
2019-03-06T13:33:15.160Z,15.20
2019-03-06T13:36:04.959Z,15.00
2019-03-06T13:38:56.325Z,14.90
2019-03-06T13:41:42.189Z,14.70
2019-03-06T13:44:30.709Z,14.70
2019-03-06T13:47:19.120Z,14.70
2019-03-06T13:50:07.194Z,14.70
2019-03-06T13:52:55.725Z,14.80
2019-03-06T13:55:43.853Z,14.90
2019-03-06T13:58:32.006Z,15.10
2019-03-06T14:01:20.592Z,15.00
2019-03-06T14:04:09.597Z,15.20
2019-03-06T14:06:57.494Z,15.20
2019-03-06T14:09:46.238Z,15.20
2019-03-06T14:12:34.676Z,15.20
2019-03-06T14:15:23.303Z,15.00
2019-03-06T14:18:12.551Z,14.90
2019-03-06T14:21:00.631Z,14.90
2019-03-06T14:23:49.145Z,14.80
2019-03-06T14:26:37.409Z,14.80
2019-03-06T14:29:26.415Z,14.70
2019-03-06T14:32:15.704Z,14.70
2019-03-06T14:35:04.028Z,14.60
2019-03-06T14:37:52.361Z,14.60
2019-03-06T14:40:41.273Z,14.50
2019-03-06T14:43:29.587Z,14.40
2019-03-06T14:46:18.329Z,14.30
2019-03-06T14:49:06.212Z,14.20
2019-03-06T14:51:53.951Z,14.10
2019-03-06T14:54:42.569Z,14.10
2019-03-06T14:57:32.391Z,14.10
2019-03-06T15:00:21.044Z,14.10
2019-03-06T15:03:08.578Z,14.00
2019-03-06T15:05:57.434Z,13.90
2019-03-06T15:08:46.113Z,13.80
2019-03-06T15:11:34.784Z,13.70
2019-03-06T15:14:23.028Z,13.60
2019-03-06T15:17:10.985Z,13.60
2019-03-06T15:19:59.551Z,13.50
2019-03-06T15:22:47.739Z,13.30
2019-03-06T15:25:36.195Z,13.00
2019-03-06T15:28:24.588Z,12.90
2019-03-06T15:31:13.664Z,12.80
2019-03-06T15:34:01.530Z,12.90
2019-03-06T15:36:50.243Z,12.90
2019-03-06T15:39:42.949Z,13.10
2019-03-06T15:42:29.085Z,13.20
2019-03-06T15:45:21.492Z,13.20
2019-03-06T15:48:10.651Z,13.30
2019-03-06T15:50:58.520Z,13.40
2019-03-06T15:53:46.552Z,13.40
2019-03-06T15:56:34.997Z,13.40
2019-03-06T15:59:23.611Z,13.40
2019-03-06T16:02:12.394Z,13.40
2019-03-06T16:05:00.567Z,13.40
2019-03-06T16:07:49.328Z,13.40
2019-03-06T16:10:37.719Z,13.40
2019-03-06T16:13:26.607Z,13.30
2019-03-06T16:16:14.293Z,13.30
2019-03-06T16:19:02.971Z,13.20
2019-03-06T16:21:51.851Z,13.20
2019-03-06T16:24:40.170Z,13.10
2019-03-06T16:27:28.998Z,13.10
2019-03-06T16:30:17.078Z,13.00
2019-03-06T16:33:06.066Z,13.00
2019-03-06T16:35:54.587Z,13.00
2019-03-06T16:38:42.633Z,13.00
2019-03-06T16:41:30.844Z,13.00
2019-03-06T16:44:20.092Z,13.00
2019-03-06T16:47:18.388Z,12.90
2019-03-06T16:50:14.370Z,12.90
2019-03-06T16:52:57.895Z,12.90
2019-03-06T16:55:46.961Z,12.90
2019-03-06T16:58:34.929Z,12.80
2019-03-06T17:01:24.683Z,12.80
2019-03-06T17:04:12.228Z,12.70
2019-03-06T17:07:00.544Z,12.70
2019-03-06T17:09:49.072Z,12.60
2019-03-06T17:12:37.443Z,12.50
2019-03-06T17:15:26.276Z,12.40
2019-03-06T17:18:14.664Z,12.20
2019-03-06T17:21:02.836Z,12.00
2019-03-06T17:23:51.332Z,12.10
2019-03-06T17:26:40.085Z,12.00
2019-03-06T17:29:28.288Z,12.00
2019-03-06T17:32:17.241Z,11.90
2019-03-06T17:35:06.488Z,12.00
2019-03-06T17:37:55.300Z,12.00
2019-03-06T17:40:43.862Z,12.00
2019-03-06T17:43:31.848Z,12.00
2019-03-06T17:46:20.331Z,12.00
2019-03-06T17:49:08.564Z,12.10
2019-03-06T17:51:57.025Z,12.10
2019-03-06T17:54:45.472Z,12.10
2019-03-06T17:57:33.747Z,12.10
2019-03-06T18:00:26.822Z,12.10
2019-03-06T18:03:19.148Z,12.20
2019-03-06T18:06:07.044Z,12.10
2019-03-06T18:08:55.876Z,12.00
2019-03-06T18:11:43.660Z,11.90
2019-03-06T18:14:32.116Z,11.90
2019-03-06T18:17:20.372Z,11.90
2019-03-06T18:20:10.538Z,11.90
2019-03-06T18:22:59.159Z,11.90
2019-03-06T18:25:47.092Z,11.80
2019-03-06T18:28:35.158Z,11.70
2019-03-06T18:31:23.688Z,11.60
2019-03-06T18:34:12.219Z,11.50
2019-03-06T18:37:00.528Z,11.50
2019-03-06T18:39:48.851Z,11.40
2019-03-06T18:42:36.531Z,11.40
2019-03-06T18:45:24.842Z,11.40
2019-03-06T18:48:12.871Z,11.30
2019-03-06T18:51:01.267Z,11.30
2019-03-06T18:53:49.089Z,11.30
2019-03-06T18:56:37.639Z,11.30
2019-03-06T18:59:25.954Z,11.20
2019-03-06T19:02:14.831Z,11.10
2019-03-06T19:05:02.751Z,11.10
2019-03-06T19:07:50.665Z,11.10
2019-03-06T19:10:39.179Z,11.10
2019-03-06T19:13:27.794Z,11.10
2019-03-06T19:16:15.915Z,11.00
2019-03-06T19:19:03.505Z,11.00
2019-03-06T19:21:51.599Z,11.00
2019-03-06T19:24:39.885Z,11.00
2019-03-06T19:27:27.933Z,11.00
2019-03-06T19:30:17.909Z,11.00
2019-03-06T19:33:06.580Z,11.00
2019-03-06T19:35:54.752Z,10.90
2019-03-06T19:38:43.359Z,10.90
2019-03-06T19:41:31.620Z,10.90
2019-03-06T19:44:19.654Z,11.00
2019-03-06T19:47:07.439Z,11.00
2019-03-06T19:49:55.234Z,11.00
2019-03-06T19:52:42.789Z,11.00
2019-03-06T19:55:31.174Z,11.10
2019-03-06T19:58:19.570Z,11.00
2019-03-06T20:01:08.331Z,11.10
2019-03-06T20:03:56.645Z,11.10
2019-03-06T20:06:44.548Z,11.00
2019-03-06T20:09:32.655Z,11.00
2019-03-06T20:12:20.885Z,10.80
2019-03-06T20:15:09.947Z,10.70
2019-03-06T20:17:57.786Z,10.60
2019-03-06T20:20:46.262Z,10.70
2019-03-06T20:23:35.222Z,10.70
2019-03-06T20:26:23.478Z,10.70
2019-03-06T20:29:11.594Z,10.70
2019-03-06T20:32:00.415Z,10.70
2019-03-06T20:34:48.647Z,10.60
2019-03-06T20:37:37.223Z,10.60
2019-03-06T20:40:25.362Z,10.60
2019-03-06T20:43:13.894Z,10.60
2019-03-06T20:46:01.911Z,10.60
2019-03-06T20:48:49.919Z,10.60
2019-03-06T20:51:38.026Z,10.60
2019-03-06T20:54:27.380Z,10.50
2019-03-06T20:57:15.571Z,10.50
2019-03-06T21:00:04.302Z,10.60
2019-03-06T21:02:52.863Z,10.60
2019-03-06T21:05:41.903Z,10.60
2019-03-06T21:08:30.394Z,10.70
2019-03-06T21:11:18.239Z,10.70
2019-03-06T21:14:06.488Z,10.70
2019-03-06T21:16:54.734Z,10.60
2019-03-06T21:19:43.465Z,10.60
2019-03-06T21:22:31.610Z,10.70
2019-03-06T21:25:20.048Z,10.70
2019-03-06T21:28:07.911Z,10.70
2019-03-06T21:30:56.015Z,10.70
2019-03-06T21:33:44.272Z,10.70
2019-03-06T21:36:32.436Z,10.80
2019-03-06T21:39:25.448Z,10.80
2019-03-06T21:42:13.260Z,10.70
2019-03-06T21:45:01.551Z,10.80
2019-03-06T21:47:49.939Z,10.80
2019-03-06T21:50:37.877Z,10.70
2019-03-06T21:53:26.403Z,10.70
2019-03-06T21:56:14.867Z,10.70
2019-03-06T21:59:03.243Z,10.80
2019-03-06T22:01:51.167Z,10.80
2019-03-06T22:04:39.344Z,10.80
2019-03-06T22:07:27.416Z,10.80
2019-03-06T22:10:16.461Z,10.90
2019-03-06T22:13:04.568Z,10.90
2019-03-06T22:15:53.184Z,10.80
2019-03-06T22:18:41.434Z,10.80
2019-03-06T22:21:29.503Z,10.90
2019-03-06T22:24:18.103Z,10.80
2019-03-06T22:27:06.828Z,10.80
2019-03-06T22:29:55.277Z,10.80
2019-03-06T22:32:43.880Z,10.80
2019-03-06T22:35:32.342Z,10.80
2019-03-06T22:38:20.975Z,10.80
2019-03-06T22:41:08.943Z,10.80
2019-03-06T22:43:56.710Z,10.80
2019-03-06T22:46:44.806Z,10.90
2019-03-06T22:49:33.040Z,10.90
2019-03-06T22:52:21.459Z,10.90
2019-03-06T22:55:11.374Z,10.90
2019-03-06T22:57:59.148Z,10.90
2019-03-06T23:00:55.619Z,10.90
2019-03-06T23:03:43.803Z,11.00
2019-03-06T23:06:32.398Z,10.90
2019-03-06T23:09:21.439Z,10.90
2019-03-06T23:12:09.479Z,11.00
2019-03-06T23:14:59.103Z,11.00
2019-03-06T23:17:47.402Z,11.00
2019-03-06T23:20:36.416Z,10.90
2019-03-06T23:23:25.172Z,11.00
2019-03-06T23:26:13.873Z,11.00
2019-03-06T23:29:01.342Z,11.00
2019-03-06T23:31:50.506Z,11.00
2019-03-06T23:34:39.041Z,11.00
2019-03-06T23:37:27.467Z,11.00
2019-03-06T23:40:16.318Z,11.00
2019-03-06T23:43:04.479Z,11.00
2019-03-06T23:45:53.005Z,11.00
2019-03-06T23:48:41.098Z,11.00
2019-03-06T23:51:34.290Z,11.00
2019-03-06T23:54:21.988Z,11.00
2019-03-06T23:57:10.324Z,11.00
2019-03-06T23:59:58.523Z,11.00
